NCAR-RAP Real-Time Weather Data

Output produced by METARs form (24 June 2017  17:28 UTC)
found at http://weather.rap.ucar.edu/surface/
 
Conditions at: KIND observed 24 June 2017  16:54 UTC
Temperature: 23.9°C (75°F)
Dewpoint: 14.4°C (58°F) [RH = 55%]
Pressure (altimeter): 30.01 inches Hg (1016.3 mb)
[Sea-level pressure: 1015.9 mb]
Winds: from the W (270 degrees) at 15 MPH (13 knots; 6.8 m/s)
gusting to 24 MPH (21 knots; 10.9 m/s)
Visibility: 10 or more miles (16+ km)
Ceiling: 4900 feet AGL
Clouds: few clouds at 4200 feet AGL
broken clouds at 4900 feet AGL
broken clouds at 18000 feet AGL
Present Weather: no significant weather observed at this time
KIND 241654Z COR 27013G21KT 10SM FEW042 BKN049 BKN180 24/14 A3001 RMK AO2 SLP159 T02390144